Time;durP1;ratioP1;P1;durP2;ratioP2;P2;SDS_P1;SDS_P2;PMS_P1;PMS_P2;Temp;Humidity;BMP_temperature;BMP_pressure;BME280_temperature;BME280_humidity;BME280_pressure;Samples;Min_cycle;Max_cycle;Signal;HPM_P1;HPM_P2
2023/06/10 00:00:55;;;;;;;3.88;2.25;;;16.60;99.90;;;;;;4860667;29;20049;-34
2023/06/10 00:03:23;;;;;;;;;;;16.60;99.90;;;;;;4895363;29;20194;-34
2023/06/10 00:05:49;;;;;;;4.93;2.83;;;16.50;99.90;;;;;;4892596;29;19919;-34
2023/06/10 00:08:19;;;;;;;4.82;2.85;;;16.40;99.90;;;;;;4894712;29;20502;-34
2023/06/10 00:10:45;;;;;;;4.30;2.53;;;16.40;99.90;;;;;;4894008;29;20048;-33
2023/06/10 00:13:11;;;;;;;4.90;2.90;;;16.40;99.90;;;;;;4898292;29;20570;-34
2023/06/10 00:15:37;;;;;;;4.93;3.20;;;16.30;99.90;;;;;;4878404;29;20075;-33
2023/06/10 00:18:09;;;;;;;4.40;2.58;;;16.30;99.90;;;;;;4897308;29;20050;-34
2023/06/10 00:20:37;;;;;;;3.50;2.72;;;16.30;99.90;;;;;;4893395;29;20469;-34
2023/06/10 00:23:03;;;;;;;4.32;3.00;;;16.20;99.90;;;;;;4895803;29;20043;-34
2023/06/10 00:25:29;;;;;;;6.57;3.17;;;16.20;99.90;;;;;;4892744;29;20040;-34
2023/06/10 00:27:55;;;;;;;6.60;3.00;;;16.20;99.90;;;;;;4890299;29;20372;-33
2023/06/10 00:30:21;;;;;;;4.70;2.80;;;16.20;99.90;;;;;;4891469;29;20041;-33
2023/06/10 00:32:47;;;;;;;5.57;2.90;;;16.10;99.90;;;;;;4893831;29;20468;-34
2023/06/10 00:35:12;;;;;;;5.82;3.20;;;16.00;99.90;;;;;;4894374;29;20076;-33
2023/06/10 00:37:38;;;;;;;5.15;2.92;;;16.00;99.90;;;;;;4893945;29;20488;-34
2023/06/10 00:40:09;;;;;;;5.88;2.90;;;15.90;99.90;;;;;;4873349;29;20052;-33
2023/06/10 00:42:35;;;;;;;6.88;3.20;;;15.90;99.90;;;;;;4894296;29;20045;-34
2023/06/10 00:45:00;;;;;;;5.35;3.17;;;15.70;99.90;;;;;;4892388;29;20480;-33
2023/06/10 00:47:28;;;;;;;3.38;2.42;;;15.60;99.90;;;;;;4890302;29;20052;-33
2023/06/10 00:49:54;;;;;;;;;;;15.50;99.90;;;;;;4898579;29;20415;-33
2023/06/10 00:52:24;;;;;;;4.93;3.10;;;15.50;99.90;;;;;;4863394;29;19926;-33
2023/06/10 00:54:51;;;;;;;6.78;2.67;;;15.40;99.90;;;;;;4897642;29;20059;-33
2023/06/10 00:57:17;;;;;;;5.18;3.38;;;15.40;99.90;;;;;;4895701;29;20141;-33
2023/06/10 00:59:48;;;;;;;4.63;2.92;;;15.40;99.90;;;;;;4892001;29;20532;-34
2023/06/10 01:02:15;;;;;;;5.20;2.95;;;15.40;99.90;;;;;;4897438;29;20048;-34
2023/06/10 01:04:41;;;;;;;5.35;3.30;;;15.30;99.90;;;;;;4896413;29;20151;-33
2023/06/10 01:07:18;;;;;;;4.32;2.78;;;15.30;99.90;;;;;;4893045;29;20560;-34
2023/06/10 01:09:57;;;;;;;5.68;2.80;;;15.30;99.90;;;;;;4892762;29;20048;-33
2023/06/10 01:15:35;;;;;;;5.05;3.05;;;;;;;;;;4896047;29;20052;-92
2023/06/10 01:18:09;;;;;;;5.50;2.88;;;15.10;99.90;;;;;;4849523;29;20097;-92
2023/06/10 01:20:39;;;;;;;4.43;2.83;;;15.10;99.90;;;;;;4890681;29;20086;-93
2023/06/10 01:23:06;;;;;;;4.25;2.72;;;15.10;99.90;;;;;;4850945;29;20044;-93
2023/06/10 01:25:36;;;;;;;3.63;2.47;;;15.00;99.90;;;;;;4855827;29;20055;-92
2023/06/10 01:28:19;;;;;;;5.53;2.70;;;15.00;99.90;;;;;;4866314;29;20048;-91
2023/06/10 01:31:36;;;;;;;3.72;2.65;;;14.90;99.90;;;;;;4865398;29;20087;-92
2023/06/10 01:34:07;;;;;;;4.05;2.70;;;14.90;99.90;;;;;;4841779;29;20049;-93
2023/06/10 01:36:34;;;;;;;4.85;2.80;;;14.80;99.90;;;;;;4884852;29;20504;-93
2023/06/10 01:39:02;;;;;;;5.40;2.95;;;14.80;99.90;;;;;;4861303;29;20596;-93
2023/06/10 01:41:28;;;;;;;4.00;2.20;;;14.80;99.90;;;;;;4846079;29;20037;-92
2023/06/10 01:43:55;;;;;;;4.13;2.67;;;14.80;99.90;;;;;;4857689;29;20048;-92
2023/06/10 01:46:21;;;;;;;3.42;3.00;;;14.70;99.90;;;;;;4868400;29;20101;-92
2023/06/10 01:48:48;;;;;;;5.23;2.30;;;14.70;99.90;;;;;;4870033;29;20040;-92
2023/06/10 01:51:14;;;;;;;4.10;2.60;;;14.60;99.90;;;;;;4866292;29;20461;-92
2023/06/10 01:53:40;;;;;;;3.50;2.40;;;14.60;99.90;;;;;;4865387;29;20540;-93
2023/06/10 01:56:06;;;;;;;3.63;2.40;;;14.50;99.90;;;;;;4855189;29;20048;-92
2023/06/10 01:58:31;;;;;;;3.90;2.85;;;14.50;99.90;;;;;;4878307;29;20052;-93
2023/06/10 02:00:57;;;;;;;5.80;2.85;;;14.50;99.90;;;;;;4863899;29;20053;-93
2023/06/10 02:03:23;;;;;;;4.15;2.72;;;14.50;99.90;;;;;;4865041;29;20100;-93
2023/06/10 02:05:49;;;;;;;5.35;2.78;;;14.40;99.90;;;;;;4881378;29;20111;-93
2023/06/10 02:08:15;;;;;;;3.92;2.40;;;14.40;99.90;;;;;;4866270;29;20040;-93
2023/06/10 02:10:41;;;;;;;5.40;2.60;;;14.40;99.90;;;;;;4882490;29;20046;-93
2023/06/10 02:13:07;;;;;;;4.03;2.78;;;14.40;99.90;;;;;;4866520;29;20044;-93
2023/06/10 02:15:33;;;;;;;4.50;2.58;;;14.30;99.90;;;;;;4864774;29;20049;-93
2023/06/10 02:18:11;;;;;;;3.20;2.38;;;14.30;99.90;;;;;;4850601;29;20037;-93
2023/06/10 02:20:38;;;;;;;4.50;2.60;;;14.10;99.90;;;;;;4866065;29;20657;-93
2023/06/10 02:23:04;;;;;;;4.60;2.75;;;14.20;99.90;;;;;;4865197;29;20049;-92
2023/06/10 02:25:30;;;;;;;4.60;3.03;;;14.20;99.90;;;;;;4877955;29;20040;-93
2023/06/10 02:27:56;;;;;;;5.15;2.88;;;14.20;99.90;;;;;;4881123;29;20949;-92
2023/06/10 02:30:22;;;;;;;5.15;2.97;;;14.20;99.90;;;;;;4865123;29;20039;-93
2023/06/10 02:32:48;;;;;;;4.10;2.70;;;14.20;99.90;;;;;;4865675;29;20041;-91
2023/06/10 02:35:14;;;;;;;4.47;2.67;;;14.20;99.90;;;;;;4833128;29;20423;-93
2023/06/10 02:37:40;;;;;;;3.40;2.37;;;14.10;99.90;;;;;;4873508;29;20041;-92
2023/06/10 02:40:08;;;;;;;7.30;2.95;;;14.10;99.90;;;;;;4883406;29;20051;-92
2023/06/10 02:42:34;;;;;;;3.97;2.30;;;14.00;99.90;;;;;;4853504;29;20091;-92
2023/06/10 02:45:00;;;;;;;5.13;2.42;;;14.00;99.90;;;;;;4891566;29;20674;-94
2023/06/10 02:47:26;;;;;;;5.88;2.88;;;14.00;99.90;;;;;;4832959;29;20044;-94
2023/06/10 02:49:52;;;;;;;5.25;2.78;;;13.90;99.90;;;;;;4871997;29;20445;-93
2023/06/10 02:52:18;;;;;;;3.72;2.58;;;13.80;99.90;;;;;;4872185;29;20056;-93
2023/06/10 02:54:44;;;;;;;6.18;2.80;;;13.80;99.90;;;;;;4849847;29;20045;-94
2023/06/10 02:57:10;;;;;;;6.65;2.47;;;13.70;99.90;;;;;;4865899;29;20400;-93
2023/06/10 02:59:36;;;;;;;4.78;2.85;;;13.70;99.90;;;;;;4863957;29;20052;-93
2023/06/10 03:02:02;;;;;;;4.72;2.70;;;13.70;99.90;;;;;;4881191;29;20129;-93
2023/06/10 03:04:28;;;;;;;3.88;2.60;;;13.70;99.90;;;;;;4885193;29;20128;-93
2023/06/10 03:06:55;;;;;;;4.20;2.60;;;;;;;;;;4879854;29;20044;-93
2023/06/10 03:09:21;;;;;;;7.68;2.50;;;13.60;99.90;;;;;;4880651;29;20040;-94
2023/06/10 03:11:47;;;;;;;6.28;3.00;;;13.50;99.90;;;;;;4872338;29;20897;-94
2023/06/10 03:14:12;;;;;;;4.80;2.88;;;13.50;99.90;;;;;;4823473;29;20068;-92
2023/06/10 03:16:42;;;;;;;5.22;2.63;;;13.50;99.90;;;;;;4843196;29;20037;-93
2023/06/10 03:19:08;;;;;;;3.38;2.63;;;13.50;99.90;;;;;;4812951;29;20960;-93
2023/06/10 03:21:37;;;;;;;6.05;3.10;;;13.50;99.90;;;;;;4819988;29;20064;-93
2023/06/10 03:24:03;;;;;;;3.38;2.42;;;13.20;99.90;;;;;;4827129;29;20117;-94
2023/06/10 03:26:29;;;;;;;5.63;3.20;;;13.40;99.90;;;;;;4845665;29;20124;-94
2023/06/10 03:28:55;;;;;;;4.88;2.83;;;13.40;99.90;;;;;;4842534;29;20564;-94
2023/06/10 03:31:21;;;;;;;5.30;2.75;;;13.40;99.90;;;;;;4840895;29;20041;-93
2023/06/10 03:33:46;;;;;;;5.53;3.17;;;13.40;99.90;;;;;;4828878;29;20050;-94
2023/06/10 03:36:12;;;;;;;4.65;2.80;;;13.30;99.90;;;;;;4831640;29;20045;-95
2023/06/10 03:38:38;;;;;;;8.90;2.90;;;13.30;99.90;;;;;;4831328;29;20064;-94
2023/06/10 03:41:04;;;;;;;7.88;3.33;;;13.30;99.90;;;;;;4829450;29;20044;-94
2023/06/10 03:43:31;;;;;;;7.57;3.42;;;13.30;99.90;;;;;;4834929;29;20101;-94
2023/06/10 03:45:57;;;;;;;6.70;3.58;;;13.30;99.90;;;;;;4847515;29;20045;-93
2023/06/10 03:48:22;;;;;;;5.13;3.25;;;13.40;99.90;;;;;;4848416;29;20076;-94
2023/06/10 03:50:50;;;;;;;7.10;3.50;;;13.40;99.90;;;;;;4864897;29;20073;-93
2023/06/10 03:53:16;;;;;;;8.38;3.38;;;13.40;99.90;;;;;;4834162;29;20073;-93
2023/06/10 03:55:42;;;;;;;6.80;3.25;;;13.40;99.90;;;;;;4834126;29;20060;-93
2023/06/10 03:58:08;;;;;;;6.85;3.50;;;13.40;99.90;;;;;;4847942;29;20041;-93
2023/06/10 04:00:41;;;;;;;5.90;3.33;;;13.40;99.90;;;;;;4848341;29;20055;-94
2023/06/10 04:03:09;;;;;;;5.82;3.22;;;13.50;99.90;;;;;;4832336;29;20041;-94
2023/06/10 04:05:37;;;;;;;5.47;3.50;;;13.40;99.90;;;;;;4864082;29;20646;-94
2023/06/10 04:08:03;;;;;;;7.45;3.80;;;13.50;99.90;;;;;;4834819;29;20037;-93
2023/06/10 04:10:29;;;;;;;6.93;3.42;;;13.50;99.90;;;;;;4821687;29;20055;-95
2023/06/10 04:12:55;;;;;;;5.13;3.53;;;13.50;99.90;;;;;;4862471;29;20405;-93
2023/06/10 04:15:21;;;;;;;4.70;3.30;;;13.50;99.90;;;;;;4871756;29;20061;-94
2023/06/10 04:17:49;;;;;;;7.90;3.47;;;13.50;99.90;;;;;;4842570;29;20072;-94
2023/06/10 04:20:15;;;;;;;6.03;3.47;;;13.60;99.90;;;;;;4850856;29;20057;-94
2023/06/10 04:22:41;;;;;;;8.43;4.18;;;13.70;99.90;;;;;;4835993;29;20485;-94
2023/06/10 04:25:08;;;;;;;8.98;4.45;;;13.80;99.90;;;;;;4878868;29;20029;-94
2023/06/10 04:27:34;;;;;;;6.25;4.03;;;13.90;99.90;;;;;;4872917;29;20061;-92
2023/06/10 04:30:00;;;;;;;10.25;4.85;;;14.00;99.90;;;;;;4890435;29;20056;-93
2023/06/10 04:32:26;;;;;;;6.07;3.97;;;14.10;99.90;;;;;;4868998;29;20033;-92
2023/06/10 04:34:52;;;;;;;9.43;4.78;;;14.10;99.90;;;;;;4859373;29;20052;-94
2023/06/10 04:37:18;;;;;;;6.65;3.90;;;14.20;99.90;;;;;;4848781;29;20087;-92
2023/06/10 04:39:44;;;;;;;8.00;4.60;;;14.30;99.90;;;;;;4871556;29;20037;-93
2023/06/10 04:42:10;;;;;;;10.82;3.90;;;14.40;99.90;;;;;;4828223;29;20596;-94
2023/06/10 04:44:39;;;;;;;6.43;3.95;;;14.40;99.90;;;;;;4816303;29;20049;-95
2023/06/10 04:47:05;;;;;;;9.13;4.43;;;14.40;99.90;;;;;;4829994;29;20045;-91
2023/06/10 04:49:31;;;;;;;10.57;4.82;;;14.50;99.90;;;;;;4853592;29;20064;-93
2023/06/10 04:51:57;;;;;;;4.93;3.95;;;14.50;99.90;;;;;;4813233;29;20049;-93
2023/06/10 04:54:23;;;;;;;6.47;4.20;;;14.60;99.90;;;;;;4838451;29;20060;-94
2023/06/10 04:56:49;;;;;;;7.10;4.22;;;14.60;99.90;;;;;;4849512;29;20088;-93
2023/06/10 04:59:15;;;;;;;6.40;3.83;;;14.70;99.90;;;;;;4848515;29;20104;-96
2023/06/10 05:01:40;;;;;;;6.85;3.88;;;14.70;99.90;;;;;;4863017;29;20037;-92
2023/06/10 05:04:06;;;;;;;7.35;4.13;;;14.80;99.90;;;;;;4838542;29;20481;-93
2023/06/10 05:06:32;;;;;;;8.85;4.70;;;14.80;99.90;;;;;;4827426;29;20121;-93
2023/06/10 05:08:58;;;;;;;6.57;3.80;;;14.90;99.90;;;;;;4843407;29;20052;-93
2023/06/10 05:11:24;;;;;;;7.65;3.97;;;14.90;99.90;;;;;;4848755;29;20493;-93
2023/06/10 05:13:50;;;;;;;7.00;4.22;;;15.00;99.90;;;;;;4848893;29;20105;-94
2023/06/10 05:16:16;;;;;;;6.75;4.20;;;15.00;99.90;;;;;;4867782;29;20074;-92
2023/06/10 05:18:41;;;;;;;7.30;4.13;;;15.10;99.90;;;;;;4867071;29;20644;-94
2023/06/10 05:21:07;;;;;;;6.45;3.72;;;15.20;99.90;;;;;;4842515;29;20076;-95
2023/06/10 05:23:33;;;;;;;6.30;3.78;;;15.20;99.90;;;;;;4864234;29;20044;-94
2023/06/10 05:26:02;;;;;;;5.55;3.53;;;15.30;99.90;;;;;;4868936;24;20198;-34
2023/06/10 05:28:28;;;;;;;4.60;3.90;;;15.30;99.90;;;;;;4847315;29;20053;-33
2023/06/10 05:30:53;;;;;;;6.50;3.60;;;15.40;99.90;;;;;;4820789;29;20141;-33
2023/06/10 05:33:22;;;;;;;7.47;4.15;;;15.50;99.90;;;;;;4805680;29;20045;-33
2023/06/10 05:35:47;;;;;;;8.50;3.67;;;15.40;99.90;;;;;;4819297;29;20495;-34
2023/06/10 05:38:13;;;;;;;5.90;3.58;;;15.50;99.90;;;;;;4845497;29;20132;-33
2023/06/10 05:40:39;;;;;;;6.50;3.58;;;15.60;99.90;;;;;;4845466;29;20046;-34
2023/06/10 05:43:04;;;;;;;6.80;3.92;;;15.70;99.90;;;;;;4842764;29;20049;-33
2023/06/10 05:45:30;;;;;;;5.97;4.15;;;15.80;99.90;;;;;;4835784;29;20045;-34
2023/06/10 05:47:56;;;;;;;7.00;3.50;;;15.80;99.90;;;;;;4839647;29;20450;-34
2023/06/10 05:50:23;;;;;;;7.18;3.70;;;16.00;99.90;;;;;;4841187;29;20121;-33
2023/06/10 05:52:49;;;;;;;6.55;3.47;;;16.50;99.90;;;;;;4822164;29;20081;-34
2023/06/10 05:55:15;;;;;;;4.50;3.13;;;17.50;99.90;;;;;;4836340;29;20064;-34
2023/06/10 05:57:42;;;;;;;6.00;3.30;;;18.50;99.90;;;;;;4845331;29;20054;-34
2023/06/10 06:00:09;;;;;;;6.03;3.40;;;19.50;99.90;;;;;;4841450;29;20053;-34
2023/06/10 06:02:34;;;;;;;4.72;3.03;;;20.00;99.90;;;;;;4820794;29;20045;-34
2023/06/10 06:05:00;;;;;;;6.55;3.50;;;20.10;99.90;;;;;;4838971;29;20042;-34
2023/06/10 06:07:26;;;;;;;5.60;3.67;;;19.60;99.90;;;;;;4845421;29;20046;-34
2023/06/10 06:09:53;;;;;;;6.47;3.35;;;18.90;99.90;;;;;;4825593;29;20054;-34
2023/06/10 06:12:19;;;;;;;7.22;3.33;;;18.60;99.90;;;;;;4835517;29;20045;-34
2023/06/10 06:14:49;;;;;;;5.70;3.45;;;18.60;99.90;;;;;;4844146;29;20107;-34
2023/06/10 06:17:14;;;;;;;6.15;3.10;;;18.70;99.90;;;;;;4837097;29;20057;-34
2023/06/10 06:19:41;;;;;;;6.40;3.65;;;19.10;99.90;;;;;;4839150;29;20091;-34
2023/06/10 06:22:13;;;;;;;5.65;3.35;;;19.10;99.90;;;;;;4836177;29;20065;-34
2023/06/10 06:24:38;;;;;;;7.40;3.08;;;19.00;99.90;;;;;;4843423;29;20125;-34
2023/06/10 06:27:04;;;;;;;4.72;2.92;;;19.00;99.90;;;;;;4847144;29;20133;-34
2023/06/10 06:29:30;;;;;;;6.20;3.25;;;18.90;99.90;;;;;;4819958;29;20149;-34
2023/06/10 06:31:56;;;;;;;6.82;3.25;;;18.70;99.90;;;;;;4841823;29;20588;-34
2023/06/10 06:34:21;;;;;;;6.18;3.63;;;18.50;99.90;;;;;;4837219;29;20065;-34
2023/06/10 06:36:50;;;;;;;5.07;3.10;;;18.20;99.90;;;;;;4834986;29;20062;-34
2023/06/10 06:39:16;;;;;;;5.63;3.00;;;18.20;99.90;;;;;;4834833;29;20050;-34
2023/06/10 06:42:02;;;;;;;5.22;3.38;;;18.30;99.90;;;;;;4831781;29;20487;-34
2023/06/10 06:44:28;;;;;;;5.72;2.83;;;18.30;99.90;;;;;;4829455;29;20054;-34
2023/06/10 06:46:54;;;;;;;4.97;2.97;;;18.40;99.90;;;;;;4816279;29;20050;-34
2023/06/10 06:49:19;;;;;;;4.30;2.80;;;18.40;99.90;;;;;;4831700;29;20144;-34
2023/06/10 06:51:48;;;;;;;6.20;3.17;;;18.40;99.90;;;;;;4836073;29;20045;-34
2023/06/10 06:54:14;;;;;;;5.10;3.00;;;18.80;99.90;;;;;;4835289;29;20042;-34
2023/06/10 06:56:40;;;;;;;6.00;2.80;;;19.40;99.90;;;;;;4842028;29;20401;-34
2023/06/10 06:59:06;;;;;;;5.80;3.42;;;20.20;99.90;;;;;;4838202;29;20041;-34
2023/06/10 07:01:34;;;;;;;5.15;2.60;;;21.10;99.90;;;;;;4833366;29;20098;-34
2023/06/10 07:03:59;;;;;;;4.72;2.90;;;21.70;99.90;;;;;;4823501;29;20053;-34
2023/06/10 07:06:26;;;;;;;4.75;2.60;;;22.10;99.90;;;;;;4835644;29;20616;-34
2023/06/10 07:08:51;;;;;;;4.45;2.55;;;22.50;99.90;;;;;;4838446;29;20049;-34
2023/06/10 07:11:17;;;;;;;3.22;2.25;;;22.80;99.90;;;;;;4835913;29;20083;-34
2023/06/10 07:13:43;;;;;;;5.63;2.60;;;23.20;99.90;;;;;;4836134;29;20042;-34
2023/06/10 07:16:09;;;;;;;7.18;2.50;;;23.30;99.90;;;;;;4834214;29;20121;-34
2023/06/10 07:18:35;;;;;;;4.10;2.60;;;23.30;99.90;;;;;;4837015;29;20048;-34
2023/06/10 07:21:00;;;;;;;4.40;2.50;;;23.30;99.90;;;;;;4841257;29;20394;-34
2023/06/10 07:23:26;;;;;;;4.30;2.40;;;23.30;99.90;;;;;;4837886;29;20050;-34
2023/06/10 07:25:56;;;;;;;7.50;2.43;;;23.30;99.90;;;;;;4841200;29;20417;-34
2023/06/10 07:28:22;;;;;;;4.50;2.67;;;23.30;99.90;;;;;;4838930;29;20073;-34
2023/06/10 07:30:50;;;;;;;5.10;2.60;;;23.80;99.90;;;;;;4843953;29;20038;-34
2023/06/10 07:33:16;;;;;;;3.38;2.42;;;24.10;99.90;;;;;;4839574;29;20062;-34
2023/06/10 07:35:43;;;;;;;4.87;2.63;;;24.70;99.90;;;;;;4837357;29;20054;-34
2023/06/10 07:38:10;;;;;;;3.35;2.10;;;25.20;99.90;;;;;;4853817;29;20045;-34
2023/06/10 07:40:35;;;;;;;3.90;2.42;;;25.10;99.90;;;;;;4838856;29;20140;-34
2023/06/10 07:43:02;;;;;;;;;;;24.70;99.90;;;;;;4846181;29;20041;-34
2023/06/10 07:45:31;;;;;;;4.45;2.65;;;24.20;99.50;;;;;;4842965;29;19920;-34
2023/06/10 07:47:57;;;;;;;3.28;2.10;;;23.80;99.90;;;;;;4839386;29;20121;-34
2023/06/10 07:50:22;;;;;;;4.20;2.10;;;23.70;99.90;;;;;;4840741;29;20263;-34
2023/06/10 07:52:48;;;;;;;5.90;2.50;;;23.90;99.90;;;;;;4839258;29;20394;-34
2023/06/10 07:55:17;;;;;;;3.23;1.93;;;24.20;99.90;;;;;;4838221;29;20123;-34
2023/06/10 07:57:44;;;;;;;5.57;2.50;;;24.40;99.90;;;;;;4838992;29;20058;-34
2023/06/10 08:00:14;;;;;;;4.10;2.15;;;24.60;99.90;;;;;;4836823;29;20083;-34
2023/06/10 08:02:40;;;;;;;3.80;2.17;;;24.90;99.90;;;;;;4838495;29;20080;-34
2023/06/10 08:05:06;;;;;;;3.90;2.30;;;24.80;99.90;;;;;;4837374;29;20038;-34
2023/06/10 08:07:32;;;;;;;6.82;2.47;;;24.90;99.90;;;;;;4839307;29;20049;-34
2023/06/10 08:10:07;;;;;;;4.77;2.33;;;24.80;99.90;;;;;;4849209;29;20038;-34
2023/06/10 08:12:33;;;;;;;4.10;2.05;;;24.60;99.20;;;;;;4840429;29;20129;-34
2023/06/10 08:15:00;;;;;;;4.63;2.33;;;24.50;99.90;;;;;;4842848;29;20071;-34
2023/06/10 08:17:27;;;;;;;3.63;2.22;;;24.10;99.90;;;;;;4853068;29;20081;-34
2023/06/10 08:19:53;;;;;;;5.10;2.33;;;24.00;99.90;;;;;;4842483;29;20599;-34
2023/06/10 08:22:21;;;;;;;5.05;2.38;;;23.80;99.90;;;;;;4841173;29;20416;-34
2023/06/10 08:24:56;;;;;;;6.07;2.53;;;23.60;99.90;;;;;;4845048;29;20525;-34
2023/06/10 08:27:23;;;;;;;3.05;2.22;;;23.40;99.90;;;;;;4837963;29;20050;-34
2023/06/10 08:29:56;;;;;;;5.82;2.47;;;23.50;99.90;;;;;;4842854;29;20068;-34
2023/06/10 08:32:21;;;;;;;2.60;2.00;;;23.40;99.90;;;;;;4844648;29;20130;-34
2023/06/10 08:34:50;;;;;;;3.70;1.93;;;23.50;99.90;;;;;;4846381;29;20477;-34
2023/06/10 08:37:19;;;;;;;7.35;2.40;;;23.30;99.90;;;;;;4838438;29;20042;-34
2023/06/10 08:39:48;;;;;;;3.00;2.10;;;23.40;99.90;;;;;;4838359;29;20165;-34
2023/06/10 08:42:39;;;;;;;4.32;2.00;;;23.50;99.90;;;;;;4839098;29;20097;-34
2023/06/10 08:45:12;;;;;;;3.88;2.25;;;23.70;99.90;;;;;;4862349;23;20064;-93
2023/06/10 08:47:41;;;;;;;4.25;1.50;;;23.80;99.90;;;;;;4864073;29;20049;-94
2023/06/10 08:50:08;;;;;;;3.05;2.08;;;23.90;99.90;;;;;;4848534;29;20101;-94
2023/06/10 08:52:40;;;;;;;6.32;2.00;;;24.10;99.90;;;;;;4831527;29;20034;-93
2023/06/10 08:55:15;;;;;;;3.67;1.92;;;24.30;99.90;;;;;;4856940;29;20052;-94
2023/06/10 08:57:42;;;;;;;3.35;1.90;;;24.40;99.90;;;;;;4848775;29;20041;-95
2023/06/10 09:00:11;;;;;;;5.35;1.65;;;24.50;99.90;;;;;;4855198;29;20049;-94
2023/06/10 09:02:37;;;;;;;4.65;2.00;;;24.70;99.90;;;;;;4865175;29;20053;-94
2023/06/10 09:05:04;;;;;;;2.90;1.70;;;25.00;99.90;;;;;;4848424;29;20041;-95
2023/06/10 09:07:36;;;;;;;3.25;2.13;;;25.10;99.90;;;;;;4862028;29;20036;-93
2023/06/10 09:10:07;;;;;;;4.22;2.20;;;25.10;99.60;;;;;;4871313;29;20085;-95
2023/06/10 09:12:35;;;;;;;4.47;2.08;;;24.60;97.90;;;;;;4868642;29;20045;-95
2023/06/10 09:15:05;;;;;;;4.90;2.05;;;24.90;99.70;;;;;;4851433;29;20055;-96
2023/06/10 09:17:36;;;;;;;3.65;1.95;;;24.60;98.20;;;;;;4871069;29;20041;-96
2023/06/10 09:20:03;;;;;;;3.47;1.90;;;24.30;99.90;;;;;;4846746;29;20049;-95
2023/06/10 09:23:02;;;;;;;4.50;1.77;;;24.60;99.90;;;;;;4847811;29;20037;-96
2023/06/10 09:25:37;;;;;;;5.45;1.67;;;24.70;99.90;;;;;;4841992;29;20053;-95
2023/06/10 09:28:03;;;;;;;4.18;1.73;;;25.10;99.90;;;;;;4848432;29;20506;-96
2023/06/10 09:30:31;;;;;;;3.05;1.80;;;25.30;99.90;;;;;;4836718;29;20075;-95
2023/06/10 09:33:03;;;;;;;3.42;1.65;;;25.30;99.90;;;;;;4857603;29;20167;-96
2023/06/10 09:35:38;;;;;;;3.58;1.80;;;25.30;98.50;;;;;;4847927;29;20048;-95
2023/06/10 09:38:22;;;;;;;3.35;1.58;;;25.40;97.70;;;;;;4848440;29;20533;-96
2023/06/10 09:41:12;;;;;;;3.00;1.80;;;25.60;97.20;;;;;;4870698;29;20041;-95
2023/06/10 09:43:45;;;;;;;3.63;2.00;;;25.60;94.00;;;;;;4857374;29;20156;-95
2023/06/10 09:46:21;;;;;;;3.40;1.75;;;25.70;93.90;;;;;;4857407;29;20049;-96
2023/06/10 09:48:47;;;;;;;4.72;2.20;;;25.70;91.80;;;;;;4827882;29;20037;-96
2023/06/10 09:51:17;;;;;;;5.43;2.20;;;25.70;90.70;;;;;;4830899;29;20049;-93
2023/06/10 09:53:50;;;;;;;5.40;2.20;;;25.60;90.40;;;;;;4840304;29;20055;-96
2023/06/10 09:56:16;;;;;;;4.78;1.85;;;25.50;90.70;;;;;;4831697;29;20045;-96
2023/06/10 09:58:43;;;;;;;4.45;2.13;;;25.50;90.40;;;;;;4841547;29;20110;-96
2023/06/10 10:01:27;;;;;;;4.82;2.05;;;25.60;90.40;;;;;;4833417;29;20426;-96
2023/06/10 10:03:53;;;;;;;5.07;1.80;;;25.80;91.70;;;;;;4837358;29;20057;-96
2023/06/10 10:06:20;;;;;;;3.33;1.90;;;25.90;90.10;;;;;;4817977;29;20038;-96
2023/06/10 10:08:50;;;;;;;;;;;26.00;87.50;;;;;;4848725;29;20536;-96
2023/06/10 10:11:22;;;;;;;4.18;1.90;;;26.00;88.00;;;;;;4845816;29;20528;-96
2023/06/10 10:13:52;;;;;;;4.70;2.20;;;26.10;86.10;;;;;;4831974;29;20057;-96
2023/06/10 10:16:40;;;;;;;4.13;2.38;;;26.10;86.00;;;;;;4832709;29;20081;-96
2023/06/10 10:19:29;;;;;;;6.25;2.63;;;26.20;85.40;;;;;;4830532;29;20569;-96
2023/06/10 10:22:01;;;;;;;2.67;2.10;;;26.30;83.30;;;;;;4837477;29;20060;-96
2023/06/10 10:24:38;;;;;;;4.28;1.98;;;26.30;83.40;;;;;;4840667;29;20067;-96
2023/06/10 10:27:17;;;;;;;3.20;1.88;;;26.30;83.30;;;;;;4840522;29;20042;-96
2023/06/10 10:29:47;;;;;;;3.15;1.85;;;26.40;83.90;;;;;;4843532;29;20100;-96
2023/06/10 10:32:16;;;;;;;3.75;2.00;;;26.40;84.10;;;;;;4860333;29;20401;-96
2023/06/10 10:35:06;;;;;;;5.18;2.45;;;26.50;81.60;;;;;;4824966;29;20046;-96
2023/06/10 10:37:32;;;;;;;2.97;2.13;;;26.30;80.70;;;;;;4827710;29;20100;-96
2023/06/10 10:40:00;;;;;;;4.30;2.35;;;26.20;82.20;;;;;;4843514;29;20040;-96
2023/06/10 10:42:29;;;;;;;3.88;2.15;;;26.30;83.30;;;;;;4832178;29;20548;-96
2023/06/10 10:45:13;;;;;;;4.20;1.95;;;26.40;81.70;;;;;;4848642;29;20092;-96
2023/06/10 10:47:44;;;;;;;3.35;2.00;;;26.40;81.30;;;;;;4857025;29;20052;-96
2023/06/10 10:50:20;;;;;;;3.95;2.20;;;26.60;80.80;;;;;;4852895;29;20037;-96
2023/06/10 10:52:59;;;;;;;2.80;1.88;;;26.70;80.90;;;;;;4858630;29;20104;-96
2023/06/10 10:55:33;;;;;;;8.13;2.20;;;26.70;79.40;;;;;;4886712;29;20045;-96
2023/06/10 10:58:08;;;;;;;6.07;1.90;;;26.70;79.60;;;;;;4862742;29;20049;-96
2023/06/10 11:00:43;;;;;;;3.97;2.17;;;26.70;79.40;;;;;;4869542;29;20112;-96
2023/06/10 11:03:13;;;;;;;5.32;1.92;;;26.90;78.00;;;;;;4860178;29;20077;-96
2023/06/10 11:05:44;;;;;;;4.00;2.05;;;26.90;77.10;;;;;;4866667;29;20045;-96
2023/06/10 11:08:13;;;;;;;2.92;1.70;;;26.90;75.90;;;;;;4879968;29;20033;-96
2023/06/10 11:10:50;;;;;;;4.47;2.17;;;26.80;74.90;;;;;;4862817;29;20504;-96
2023/06/10 11:13:20;;;;;;;2.78;1.55;;;26.70;75.20;;;;;;4862569;29;20075;-96
2023/06/10 11:15:50;;;;;;;3.22;1.83;;;26.70;75.20;;;;;;4855484;29;20049;-96
2023/06/10 11:18:24;;;;;;;2.60;1.67;;;26.70;74.10;;;;;;4858991;29;20092;-96
2023/06/10 11:20:50;;;;;;;3.88;2.10;;;26.70;74.30;;;;;;4855571;29;20060;-96
2023/06/10 11:23:41;;;;;;;3.30;1.73;;;26.90;74.20;;;;;;4877368;29;20088;-96
2023/06/10 11:29:42;;;;;;;3.33;1.67;;;26.80;71.50;;;;;;4809773;29;20395;-96
2023/06/10 11:44:08;;;;;;;3.38;1.83;;;26.90;71.80;;;;;;4651225;30;20058;-96
2023/06/10 11:46:56;;;;;;;3.33;1.60;;;27.00;72.30;;;;;;4683234;30;20496;-95
2023/06/10 11:49:40;;;;;;;4.97;1.92;;;27.00;72.20;;;;;;4719059;29;20175;-96
2023/06/10 11:53:02;;;;;;;;;;;;;;;;;;;;;
2023/06/10 11:55:50;;;;;;;4.13;1.70;;;26.90;76.60;;;;;;4858866;29;20074;-96
2023/06/10 11:58:22;;;;;;;3.40;1.77;;;27.00;76.80;;;;;;4851601;29;20045;-94
2023/06/10 12:00:57;;;;;;;4.10;1.65;;;27.00;75.90;;;;;;4854828;29;20040;-94
2023/06/10 12:03:37;;;;;;;4.78;1.75;;;27.00;76.20;;;;;;4864881;29;20049;-95
2023/06/10 12:06:11;;;;;;;10.18;1.98;;;27.00;74.90;;;;;;4855231;29;20069;-96
2023/06/10 12:08:42;;;;;;;3.55;1.90;;;27.00;75.90;;;;;;4837165;29;20040;-94
2023/06/10 12:11:08;;;;;;;2.83;1.58;;;26.90;75.90;;;;;;4850336;29;20036;-94
2023/06/10 12:13:48;;;;;;;4.30;2.17;;;26.80;76.80;;;;;;4854882;29;20041;-96
2023/06/10 12:16:14;;;;;;;4.10;1.98;;;26.80;74.90;;;;;;4851818;29;20044;-94
2023/06/10 12:19:19;;;;;;;3.42;1.85;;;26.70;76.70;;;;;;4864853;29;20144;-96
2023/06/10 12:21:56;;;;;;;6.95;2.60;;;26.70;76.60;;;;;;4872217;29;20109;-95
2023/06/10 12:25:32;;;;;;;3.55;1.77;;;26.60;77.70;;;;;;4843630;29;20056;-96
2023/06/10 12:28:11;;;;;;;2.72;1.65;;;26.50;77.70;;;;;;4824754;29;20062;-95
2023/06/10 12:30:39;;;;;;;2.67;1.70;;;26.50;79.20;;;;;;4822235;29;20050;-95
2023/06/10 12:33:19;;;;;;;2.38;1.42;;;26.50;79.70;;;;;;4803275;29;20077;-96
2023/06/10 12:35:54;;;;;;;4.20;1.83;;;26.40;79.80;;;;;;4827382;29;20479;-95
2023/06/10 12:39:05;;;;;;;4.05;2.25;;;26.40;81.30;;;;;;4811284;29;20584;-95
2023/06/10 12:41:41;;;;;;;;;;;;;;;;;;;;;
2023/06/10 12:44:16;;;;;;;3.93;1.73;;;26.10;82.20;;;;;;4826804;29;20226;-95
2023/06/10 12:46:45;;;;;;;3.75;2.10;;;26.10;83.40;;;;;;4811544;29;20058;-94
2023/06/10 12:49:26;;;;;;;4.35;1.70;;;26.00;85.50;;;;;;4837811;29;20560;-94
2023/06/10 12:51:54;;;;;;;2.70;1.88;;;25.90;85.10;;;;;;4807797;29;20061;-95
2023/06/10 12:54:28;;;;;;;3.30;1.67;;;25.80;87.80;;;;;;4808321;29;20061;-96
2023/06/10 12:56:58;;;;;;;3.63;1.90;;;25.80;89.70;;;;;;4822131;29;20133;-94
2023/06/10 12:59:28;;;;;;;4.43;2.15;;;25.70;88.10;;;;;;4837566;29;20053;-96
2023/06/10 13:01:55;;;;;;;2.70;1.80;;;25.60;89.00;;;;;;4829998;29;20042;-94
2023/06/10 13:04:21;;;;;;;2.67;1.70;;;25.60;90.30;;;;;;4817246;29;20049;-96
2023/06/10 13:06:48;;;;;;;3.53;1.80;;;25.60;87.70;;;;;;4817048;29;20120;-94
2023/06/10 13:09:15;;;;;;;4.10;2.03;;;25.60;87.90;;;;;;4834050;29;20077;-95
2023/06/10 13:11:42;;;;;;;3.95;1.90;;;25.60;90.80;;;;;;4814785;29;20050;-94
2023/06/10 13:14:13;;;;;;;3.40;1.85;;;25.60;92.10;;;;;;4820572;29;20046;-95
2023/06/10 13:16:44;;;;;;;4.68;1.63;;;25.50;90.90;;;;;;4815564;29;20059;-95
2023/06/10 13:19:11;;;;;;;3.85;2.00;;;25.50;89.70;;;;;;4824578;29;20394;-94
2023/06/10 13:21:37;;;;;;;4.50;2.33;;;25.50;90.10;;;;;;4819525;29;20057;-95